Terminal Aerodrome Forecast
Issued by NWS

Home | Current Version | Previous Version | Text Only | Print | Product List | Glossary Off
Versions: 1 2 3 4 5 6 7 8 9 10 11 12 13 14 15 16 17 18

000
FTUS43 KOAX 271700
TAFCDR
TAF
KCDR 271740Z 2718/2818 29006KT P6SM SKC
     FM272100 13011KT P6SM SKC
     FM281400 06007KT P6SM SCT150=

USA.gov is the U.S. government's official web portal to all federal, state and local government web resources and services.